createdAt,value
2022-11-01T00:01:56.820Z,10.10
2022-11-01T00:04:24.287Z,10.10
2022-11-01T00:06:51.336Z,10.10
2022-11-01T00:09:18.514Z,10.10
2022-11-01T00:11:45.543Z,10.10
2022-11-01T00:14:14.134Z,10.10
2022-11-01T00:16:41.977Z,10.10
2022-11-01T00:19:09.403Z,10.00
2022-11-01T00:21:36.615Z,10.00
2022-11-01T00:24:03.663Z,10.00
2022-11-01T00:26:30.662Z,10.00
2022-11-01T00:28:57.609Z,10.00
2022-11-01T00:31:24.837Z,10.00
2022-11-01T00:33:51.874Z,10.00
2022-11-01T00:36:18.855Z,10.00
2022-11-01T00:38:49.986Z,10.00
2022-11-01T00:41:16.961Z,10.00
2022-11-01T00:43:43.973Z,9.90
2022-11-01T00:46:11.146Z,9.90
2022-11-01T00:48:38.051Z,9.90
2022-11-01T00:51:05.246Z,9.90
2022-11-01T00:53:32.192Z,9.80
2022-11-01T00:56:04.933Z,9.80
2022-11-01T00:58:31.944Z,9.80
2022-11-01T01:00:59.485Z,9.70
2022-11-01T01:03:26.641Z,9.70
2022-11-01T01:05:54.817Z,9.70
2022-11-01T01:08:22.572Z,9.70
2022-11-01T01:10:49.722Z,9.70
2022-11-01T01:13:16.925Z,9.70
2022-11-01T01:15:44.402Z,9.80
2022-11-01T01:18:11.696Z,9.80
2022-11-01T01:20:38.885Z,9.90
2022-11-01T01:23:06.059Z,9.90
2022-11-01T01:25:33.038Z,9.80
2022-11-01T01:28:00.341Z,9.80
2022-11-01T01:30:27.545Z,9.90
2022-11-01T01:32:54.537Z,9.80
2022-11-01T01:35:21.451Z,9.90
2022-11-01T01:37:48.420Z,9.90
2022-11-01T01:40:15.414Z,9.90
2022-11-01T01:42:43.500Z,9.80
2022-11-01T01:45:19.447Z,9.80
2022-11-01T01:47:50.032Z,9.80
2022-11-01T01:50:44.956Z,9.80
2022-11-01T01:53:28.236Z,9.70
2022-11-01T01:56:02.061Z,9.70
2022-11-01T01:58:38.399Z,9.70
2022-11-01T02:01:05.481Z,9.70
2022-11-01T02:03:34.589Z,9.60
2022-11-01T02:06:13.318Z,9.50
2022-11-01T02:08:44.008Z,9.50
2022-11-01T02:11:12.170Z,9.50
2022-11-01T02:13:39.255Z,9.50
2022-11-01T02:16:15.032Z,9.50
2022-11-01T02:19:19.710Z,9.50
2022-11-01T02:22:11.289Z,9.50
2022-11-01T02:24:38.133Z,9.50
2022-11-01T02:27:17.209Z,9.50
2022-11-01T02:30:09.502Z,9.50
2022-11-01T02:32:44.469Z,9.50
2022-11-01T02:35:43.600Z,9.50
2022-11-01T02:38:27.605Z,9.60
2022-11-01T02:41:03.900Z,9.50
2022-11-01T02:43:40.890Z,9.50
2022-11-01T02:46:28.253Z,9.50
2022-11-01T02:48:57.888Z,9.50
2022-11-01T02:51:26.832Z,9.50
2022-11-01T02:53:53.722Z,9.50
2022-11-01T02:56:22.903Z,9.50
2022-11-01T02:58:52.847Z,9.40
2022-11-01T03:01:25.348Z,9.40
2022-11-01T03:03:56.253Z,9.40
2022-11-01T03:06:43.934Z,9.40
2022-11-01T03:09:12.399Z,9.40
2022-11-01T03:11:53.608Z,9.40
2022-11-01T03:14:52.720Z,9.40
2022-11-01T03:17:32.733Z,9.40
2022-11-01T03:20:21.308Z,9.40
2022-11-01T03:22:52.677Z,9.40
2022-11-01T03:25:44.535Z,9.40
2022-11-01T03:28:20.975Z,9.40
2022-11-01T03:30:59.650Z,9.40
2022-11-01T03:33:27.750Z,9.40
2022-11-01T03:36:00.649Z,9.40
2022-11-01T03:38:33.120Z,9.40
2022-11-01T03:41:07.279Z,9.30
2022-11-01T03:43:36.426Z,9.30
2022-11-01T03:46:03.946Z,9.30
2022-11-01T03:48:30.843Z,9.30
2022-11-01T03:50:57.818Z,9.30
2022-11-01T03:53:25.150Z,9.30
2022-11-01T03:55:52.116Z,9.30
2022-11-01T03:58:19.137Z,9.30
2022-11-01T04:00:47.275Z,9.30
2022-11-01T04:03:14.462Z,9.30
2022-11-01T04:05:42.133Z,9.30
2022-11-01T04:08:10.843Z,9.30
2022-11-01T04:10:38.493Z,9.30
2022-11-01T04:13:05.762Z,9.30
2022-11-01T04:15:51.319Z,9.30
2022-11-01T04:18:42.194Z,9.30
2022-11-01T04:21:17.948Z,9.40
2022-11-01T04:23:46.328Z,9.40
2022-11-01T04:26:22.319Z,9.40
2022-11-01T04:28:58.599Z,9.50
2022-11-01T04:31:34.108Z,9.50
2022-11-01T04:34:02.182Z,9.50
2022-11-01T04:36:29.458Z,9.50
2022-11-01T04:38:57.801Z,9.50
2022-11-01T04:41:27.135Z,9.40
2022-11-01T04:43:56.272Z,9.50
2022-11-01T04:46:23.431Z,9.50
2022-11-01T04:48:50.434Z,9.40
2022-11-01T04:51:17.488Z,9.50
2022-11-01T04:53:44.384Z,9.50
2022-11-01T04:56:13.604Z,9.50
2022-11-01T04:58:44.940Z,9.60
2022-11-01T05:01:14.404Z,9.60
2022-11-01T05:03:41.800Z,9.70
2022-11-01T05:06:08.984Z,9.70
2022-11-01T05:08:36.119Z,9.70
2022-11-01T05:11:03.076Z,9.70
2022-11-01T05:13:30.549Z,9.70
2022-11-01T05:18:45.595Z,9.80
2022-11-01T05:21:12.754Z,9.70
2022-11-01T05:23:39.891Z,9.70
2022-11-01T05:26:07.150Z,9.70
2022-11-01T05:28:34.863Z,9.70
2022-11-01T05:31:01.766Z,9.60
2022-11-01T05:33:28.892Z,9.60
2022-11-01T05:35:55.814Z,9.60
2022-11-01T05:38:22.858Z,9.70
2022-11-01T05:40:50.588Z,9.70
2022-11-01T05:43:17.590Z,9.70
2022-11-01T05:45:44.667Z,9.70
2022-11-01T05:48:12.185Z,9.70
2022-11-01T05:50:39.120Z,9.70
2022-11-01T05:53:07.881Z,9.70
2022-11-01T05:55:35.675Z,9.80
2022-11-01T05:58:03.324Z,9.80
2022-11-01T06:00:30.297Z,9.80
2022-11-01T06:03:01.016Z,9.80
2022-11-01T06:05:29.438Z,9.70
2022-11-01T06:07:56.999Z,9.70
2022-11-01T06:10:24.136Z,9.70
2022-11-01T06:12:51.162Z,9.60
2022-11-01T06:15:18.334Z,9.70
2022-11-01T06:17:45.402Z,9.70
2022-11-01T06:20:12.498Z,9.70
2022-11-01T06:22:39.903Z,9.80
2022-11-01T06:25:08.293Z,9.80
2022-11-01T06:27:35.335Z,9.80
2022-11-01T06:30:02.286Z,9.80
2022-11-01T06:32:29.390Z,9.80
2022-11-01T06:34:56.327Z,9.80
2022-11-01T06:37:23.360Z,9.80
2022-11-01T06:39:50.619Z,9.80
2022-11-01T06:42:17.575Z,9.80
2022-11-01T06:44:44.449Z,9.80
2022-11-01T06:47:12.892Z,9.90
2022-11-01T06:49:40.191Z,9.80
2022-11-01T06:52:07.863Z,9.90
2022-11-01T06:54:34.831Z,9.90
2022-11-01T06:57:01.873Z,9.90
2022-11-01T06:59:28.822Z,10.00
2022-11-01T07:01:55.930Z,10.00
2022-11-01T07:04:23.394Z,10.10
2022-11-01T07:06:50.406Z,10.20
2022-11-01T07:09:17.368Z,10.30
2022-11-01T07:11:44.367Z,10.40
2022-11-01T07:14:11.547Z,10.60
2022-11-01T07:16:39.226Z,10.80
2022-11-01T07:19:06.304Z,10.90
2022-11-01T07:21:33.290Z,11.10
2022-11-01T07:24:00.343Z,11.20
2022-11-01T07:26:27.340Z,11.40
2022-11-01T07:28:54.265Z,11.50
2022-11-01T07:31:21.572Z,11.70
2022-11-01T07:33:48.476Z,11.80
2022-11-01T07:36:15.496Z,12.00
2022-11-01T07:38:42.553Z,11.90
2022-11-01T07:41:09.496Z,12.00
2022-11-01T07:43:36.869Z,12.00
2022-11-01T07:46:05.723Z,12.00
2022-11-01T07:48:33.077Z,12.00
2022-11-01T07:51:00.271Z,12.00
2022-11-01T07:53:27.189Z,12.10
2022-11-01T07:55:54.156Z,12.20
2022-11-01T07:58:21.098Z,12.30
2022-11-01T08:00:48.213Z,12.60
2022-11-01T08:03:17.642Z,12.90
2022-11-01T08:05:46.157Z,13.10
2022-11-01T08:08:14.244Z,13.40
2022-11-01T08:10:42.489Z,13.50
2022-11-01T08:13:17.069Z,13.70
2022-11-01T08:15:44.585Z,13.90
2022-11-01T08:18:11.658Z,14.00
2022-11-01T08:20:39.010Z,14.10
2022-11-01T08:23:06.293Z,14.20
2022-11-01T08:25:35.048Z,14.20
2022-11-01T08:28:03.731Z,14.30
2022-11-01T08:30:31.016Z,14.40
2022-11-01T08:32:59.905Z,14.40
2022-11-01T08:35:27.613Z,14.50
2022-11-01T08:37:55.145Z,14.60
2022-11-01T08:40:22.694Z,14.70
2022-11-01T08:42:49.647Z,14.80
2022-11-01T08:45:17.319Z,15.00
2022-11-01T08:47:44.500Z,15.20
2022-11-01T08:50:13.550Z,15.30
2022-11-01T08:52:41.195Z,15.50
2022-11-01T08:55:10.012Z,15.70
2022-11-01T08:57:37.250Z,15.90
2022-11-01T09:00:07.182Z,16.10
2022-11-01T09:02:34.752Z,16.10
2022-11-01T09:05:05.202Z,16.30
2022-11-01T09:07:33.219Z,16.40
2022-11-01T09:10:00.379Z,16.50
2022-11-01T09:12:27.406Z,16.70
2022-11-01T09:14:54.464Z,16.80
2022-11-01T09:17:21.461Z,16.80
2022-11-01T09:19:48.460Z,16.70
2022-11-01T09:22:15.473Z,16.80
2022-11-01T09:24:42.461Z,16.80
2022-11-01T09:27:09.780Z,16.90
2022-11-01T09:29:36.771Z,16.90
2022-11-01T09:32:04.122Z,17.00
2022-11-01T09:34:31.089Z,17.10
2022-11-01T09:36:58.203Z,17.20
2022-11-01T09:39:25.172Z,17.20
2022-11-01T09:42:06.561Z,17.30
2022-11-01T09:44:43.301Z,17.20
2022-11-01T09:47:17.964Z,17.20
2022-11-01T09:49:48.366Z,17.20
2022-11-01T09:52:24.030Z,17.20
2022-11-01T09:54:51.318Z,17.20
2022-11-01T09:57:46.394Z,17.20
2022-11-01T10:00:21.619Z,17.20
2022-11-01T10:03:01.365Z,17.00
2022-11-01T10:05:34.499Z,17.10
2022-11-01T10:08:14.140Z,17.10
2022-11-01T10:11:08.580Z,17.10
2022-11-01T10:13:44.555Z,17.20
2022-11-01T10:16:30.119Z,17.10
2022-11-01T10:19:21.844Z,17.10
2022-11-01T10:21:50.952Z,17.00
2022-11-01T10:24:24.961Z,16.90
2022-11-01T10:27:18.603Z,17.00
2022-11-01T10:30:00.331Z,16.80
2022-11-01T10:32:35.248Z,16.80
2022-11-01T10:35:07.087Z,16.80
2022-11-01T10:38:22.807Z,16.80
2022-11-01T10:40:59.753Z,16.90
2022-11-01T10:43:27.445Z,17.00
2022-11-01T10:45:57.795Z,17.00
2022-11-01T10:48:36.970Z,17.00
2022-11-01T10:51:06.564Z,17.00
2022-11-01T10:53:40.645Z,17.10
2022-11-01T10:56:12.501Z,17.10
2022-11-01T10:58:47.404Z,17.10
2022-11-01T11:01:23.204Z,17.10
2022-11-01T11:03:51.112Z,17.30
2022-11-01T11:06:19.290Z,17.40
2022-11-01T11:08:51.698Z,17.50
2022-11-01T11:11:41.661Z,17.70
2022-11-01T11:14:11.782Z,17.70
2022-11-01T11:16:55.942Z,17.80
2022-11-01T11:19:33.456Z,17.80
2022-11-01T11:22:02.283Z,17.80
2022-11-01T11:24:29.210Z,17.80
2022-11-01T11:26:57.277Z,17.90
2022-11-01T11:29:48.837Z,17.90
2022-11-01T11:32:22.290Z,17.90
2022-11-01T11:34:57.593Z,18.00
2022-11-01T11:37:28.302Z,18.10
2022-11-01T11:40:19.373Z,18.20
2022-11-01T11:42:51.504Z,18.30
2022-11-01T11:45:28.355Z,18.40
2022-11-01T11:48:24.143Z,18.40
2022-11-01T11:51:04.521Z,18.30
2022-11-01T11:53:33.510Z,18.10
2022-11-01T11:56:06.855Z,18.10
2022-11-01T11:58:39.301Z,18.00
2022-11-01T12:01:15.790Z,18.00
2022-11-01T12:04:16.157Z,17.90
2022-11-01T12:06:46.779Z,17.80
2022-11-01T12:09:44.432Z,17.80
2022-11-01T12:12:27.608Z,17.80
2022-11-01T12:14:56.405Z,17.70
2022-11-01T12:17:43.518Z,17.70
2022-11-01T12:20:14.495Z,17.70
2022-11-01T12:22:50.702Z,17.70
2022-11-01T12:25:23.939Z,17.80
2022-11-01T12:28:01.758Z,17.80
2022-11-01T12:30:33.675Z,17.80
2022-11-01T12:33:06.531Z,17.80
2022-11-01T12:35:40.756Z,17.90
2022-11-01T12:38:10.526Z,17.90
2022-11-01T12:40:41.182Z,18.10
2022-11-01T12:43:35.941Z,18.20
2022-11-01T12:46:35.505Z,18.20
2022-11-01T12:49:10.952Z,18.20
2022-11-01T12:51:43.921Z,18.20
2022-11-01T12:54:23.143Z,18.10
2022-11-01T12:56:50.085Z,18.10
2022-11-01T12:59:24.817Z,18.20
2022-11-01T13:01:57.962Z,18.20
2022-11-01T13:04:44.238Z,18.20
2022-11-01T13:07:49.139Z,18.20
2022-11-01T13:10:31.109Z,18.20
2022-11-01T13:13:15.129Z,18.10
2022-11-01T13:16:02.757Z,17.90
2022-11-01T13:18:48.177Z,17.60
2022-11-01T13:21:34.422Z,17.50
2022-11-01T13:24:35.221Z,17.40
2022-11-01T13:27:21.099Z,17.30
2022-11-01T13:30:14.272Z,17.20
2022-11-01T13:33:03.682Z,17.20
2022-11-01T13:35:44.916Z,17.10
2022-11-01T13:38:40.022Z,17.00
2022-11-01T13:41:09.987Z,17.00
2022-11-01T13:43:44.296Z,16.90
2022-11-01T13:46:32.290Z,16.90
2022-11-01T13:49:28.051Z,17.00
2022-11-01T13:52:03.885Z,17.10
2022-11-01T13:54:42.824Z,17.40
2022-11-01T13:57:13.572Z,17.40
2022-11-01T13:59:44.589Z,17.30
2022-11-01T14:02:23.867Z,17.30
2022-11-01T14:05:02.923Z,17.30
2022-11-01T14:07:45.093Z,17.30
2022-11-01T14:10:31.997Z,17.20
2022-11-01T14:13:08.120Z,17.10
2022-11-01T14:15:39.693Z,17.10
2022-11-01T14:18:11.803Z,17.00
2022-11-01T14:20:38.689Z,16.90
2022-11-01T14:23:31.617Z,16.90
2022-11-01T14:26:20.562Z,16.90
2022-11-01T14:29:00.559Z,16.90
2022-11-01T14:31:32.776Z,17.00
2022-11-01T14:34:08.431Z,17.20
2022-11-01T14:36:39.985Z,17.20
2022-11-01T14:39:15.933Z,17.20
2022-11-01T14:41:44.895Z,17.10
2022-11-01T14:44:20.795Z,17.10
2022-11-01T14:46:52.332Z,17.00
2022-11-01T14:49:36.511Z,16.90
2022-11-01T14:52:19.220Z,16.90
2022-11-01T14:54:56.486Z,16.80
2022-11-01T14:57:32.194Z,16.70
2022-11-01T14:59:59.899Z,16.60
2022-11-01T15:02:28.325Z,16.50
2022-11-01T15:05:00.538Z,16.30
2022-11-01T15:07:35.808Z,16.20
2022-11-01T15:10:09.837Z,16.00
2022-11-01T15:13:04.245Z,15.80
2022-11-01T15:15:37.691Z,15.70
2022-11-01T15:18:17.143Z,15.60
2022-11-01T15:20:48.946Z,15.60
2022-11-01T15:23:19.682Z,15.50
2022-11-01T15:25:54.208Z,15.40
2022-11-01T15:28:30.555Z,15.30
2022-11-01T15:31:03.614Z,15.20
2022-11-01T15:33:36.541Z,15.00
2022-11-01T15:36:18.636Z,14.80
2022-11-01T15:38:55.795Z,14.90
2022-11-01T15:41:34.273Z,14.80
2022-11-01T15:44:05.176Z,14.70
2022-11-01T15:46:37.380Z,14.60
2022-11-01T15:49:09.647Z,14.40
2022-11-01T15:51:41.662Z,14.20
2022-11-01T15:54:34.234Z,14.00
2022-11-01T15:57:04.618Z,13.80
2022-11-01T15:59:42.365Z,13.60
2022-11-01T16:02:20.733Z,13.50
2022-11-01T16:04:48.344Z,13.30
2022-11-01T16:07:21.031Z,13.10
2022-11-01T16:09:51.112Z,13.00
2022-11-01T16:12:27.375Z,12.90
2022-11-01T16:15:06.525Z,12.80
2022-11-01T16:17:40.409Z,12.80
2022-11-01T16:20:26.705Z,12.70
2022-11-01T16:22:54.205Z,12.70
2022-11-01T16:25:24.077Z,12.70
2022-11-01T16:28:02.246Z,12.70
2022-11-01T16:30:42.962Z,12.70
2022-11-01T16:33:23.571Z,12.60
2022-11-01T16:36:18.534Z,12.60
2022-11-01T16:38:46.508Z,12.60
2022-11-01T16:41:21.322Z,12.60
2022-11-01T16:43:59.475Z,12.60
2022-11-01T16:46:29.309Z,12.60
2022-11-01T16:49:01.531Z,12.50
2022-11-01T16:51:30.410Z,12.40
2022-11-01T16:53:59.207Z,12.40
2022-11-01T16:56:37.858Z,12.40
2022-11-01T16:59:08.726Z,12.40
2022-11-01T17:01:36.455Z,12.30
2022-11-01T17:04:04.190Z,12.20
2022-11-01T17:06:34.734Z,12.10
2022-11-01T17:09:14.731Z,12.00
2022-11-01T17:11:46.429Z,12.00
2022-11-01T17:14:15.332Z,11.90
2022-11-01T17:16:43.652Z,11.90
2022-11-01T17:19:35.356Z,12.00
2022-11-01T17:22:08.705Z,12.00
2022-11-01T17:24:35.783Z,11.90
2022-11-01T17:27:05.406Z,11.90
2022-11-01T17:29:33.246Z,11.80
2022-11-01T17:32:01.191Z,11.70
2022-11-01T17:34:29.084Z,11.70
2022-11-01T17:36:57.631Z,11.60
2022-11-01T17:39:28.311Z,11.60
2022-11-01T17:41:56.405Z,11.50
2022-11-01T17:44:23.425Z,11.60
2022-11-01T17:46:50.424Z,11.60
2022-11-01T17:49:21.617Z,11.60
2022-11-01T17:51:54.206Z,11.60
2022-11-01T17:54:22.911Z,11.60
2022-11-01T17:56:51.359Z,11.60
2022-11-01T17:59:18.541Z,11.60
2022-11-01T18:01:45.749Z,11.60
2022-11-01T18:04:12.835Z,11.70
2022-11-01T18:06:43.929Z,11.70
2022-11-01T18:09:24.230Z,11.70
2022-11-01T18:11:57.413Z,11.80
2022-11-01T18:17:29.299Z,11.80
2022-11-01T18:20:11.613Z,11.60
2022-11-01T18:22:53.379Z,11.60
2022-11-01T18:25:29.967Z,11.40
2022-11-01T18:28:00.670Z,11.30
2022-11-01T18:30:28.265Z,11.20
2022-11-01T18:33:07.363Z,11.10
2022-11-01T18:35:49.982Z,11.00
2022-11-01T18:38:25.901Z,10.90
2022-11-01T18:41:04.876Z,10.90
2022-11-01T18:43:35.280Z,10.70
2022-11-01T18:46:36.907Z,10.60
2022-11-01T18:49:10.610Z,10.60
2022-11-01T18:51:39.132Z,10.50
2022-11-01T18:54:08.925Z,10.40
2022-11-01T18:56:46.339Z,10.40
2022-11-01T18:59:15.635Z,10.40
2022-11-01T19:01:42.819Z,10.30
2022-11-01T19:04:16.495Z,10.30
2022-11-01T19:06:43.591Z,10.40
2022-11-01T19:09:31.268Z,10.40
2022-11-01T19:12:11.360Z,10.30
2022-11-01T19:14:39.962Z,10.30
2022-11-01T19:17:32.128Z,10.20
2022-11-01T19:19:59.920Z,10.10
2022-11-01T19:22:38.687Z,10.10
2022-11-01T19:25:16.724Z,10.00
2022-11-01T19:27:44.376Z,10.00
2022-11-01T19:30:22.855Z,10.00
2022-11-01T19:32:51.242Z,10.00
2022-11-01T19:35:22.076Z,10.00
2022-11-01T19:37:52.272Z,10.00
2022-11-01T19:40:31.729Z,10.00
2022-11-01T19:43:09.411Z,9.90
2022-11-01T19:45:40.983Z,9.90
2022-11-01T19:48:12.147Z,9.80
2022-11-01T19:50:44.183Z,9.80
2022-11-01T19:53:31.045Z,9.90
2022-11-01T19:56:01.775Z,9.80
2022-11-01T19:58:46.080Z,9.90
2022-11-01T20:01:41.452Z,9.80
2022-11-01T20:04:17.556Z,9.80
2022-11-01T20:06:56.392Z,9.80
2022-11-01T20:09:27.453Z,9.80
2022-11-01T20:11:54.966Z,9.90
2022-11-01T20:14:22.528Z,9.90
2022-11-01T20:16:50.967Z,9.90
2022-11-01T20:19:18.249Z,10.00
2022-11-01T20:21:45.427Z,10.00
2022-11-01T20:24:13.078Z,10.00
2022-11-01T20:26:40.098Z,9.90
2022-11-01T20:29:07.186Z,9.70
2022-11-01T20:31:34.292Z,9.60
2022-11-01T20:34:01.913Z,9.60
2022-11-01T20:36:29.200Z,9.60
2022-11-01T20:38:56.122Z,9.50
2022-11-01T20:41:24.090Z,9.50
2022-11-01T20:43:51.059Z,9.50
2022-11-01T20:46:18.419Z,9.40
2022-11-01T20:48:45.501Z,9.20
2022-11-01T20:51:13.355Z,9.20
2022-11-01T20:53:41.364Z,9.10
2022-11-01T20:56:08.936Z,9.10
2022-11-01T20:58:41.953Z,9.00
2022-11-01T21:01:16.848Z,9.00
2022-11-01T21:03:44.497Z,9.00
2022-11-01T21:06:17.226Z,9.00
2022-11-01T21:08:48.623Z,8.90
2022-11-01T21:11:44.231Z,8.90
2022-11-01T21:14:18.834Z,8.80
2022-11-01T21:16:48.166Z,8.80
2022-11-01T21:19:23.226Z,8.80
2022-11-01T21:21:57.581Z,8.80
2022-11-01T21:24:40.880Z,8.70
2022-11-01T21:27:10.574Z,8.70
2022-11-01T21:29:44.862Z,8.70
2022-11-01T21:32:30.092Z,8.70
2022-11-01T21:34:58.425Z,8.60
2022-11-01T21:37:28.701Z,8.60
2022-11-01T21:40:04.517Z,8.50
2022-11-01T21:42:35.735Z,8.60
2022-11-01T21:45:32.876Z,8.50
2022-11-01T21:48:16.693Z,8.60
2022-11-01T21:50:43.598Z,8.60
2022-11-01T21:53:10.577Z,8.60
2022-11-01T21:55:37.528Z,8.50
2022-11-01T21:58:04.689Z,8.40
2022-11-01T22:00:31.594Z,8.40
2022-11-01T22:02:58.600Z,8.40
2022-11-01T22:05:25.515Z,8.40
2022-11-01T22:07:52.494Z,8.30
2022-11-01T22:10:19.463Z,8.30
2022-11-01T22:12:46.483Z,8.30
2022-11-01T22:15:14.258Z,8.30
2022-11-01T22:17:41.299Z,8.20
2022-11-01T22:20:08.645Z,8.10
2022-11-01T22:22:35.566Z,8.20
2022-11-01T22:25:02.530Z,8.20
2022-11-01T22:27:29.594Z,8.20
2022-11-01T22:29:56.518Z,8.10
2022-11-01T22:32:23.661Z,8.10
2022-11-01T22:34:50.626Z,8.10
2022-11-01T22:37:17.678Z,8.10
2022-11-01T22:39:46.971Z,8.10
2022-11-01T22:42:16.251Z,8.10
2022-11-01T22:44:46.768Z,8.10
2022-11-01T22:47:24.731Z,8.00
2022-11-01T22:49:54.355Z,7.90
2022-11-01T22:52:24.407Z,7.90
2022-11-01T22:54:56.595Z,7.90
2022-11-01T22:57:27.641Z,7.90
2022-11-01T23:00:01.608Z,7.80
2022-11-01T23:02:34.489Z,7.80
2022-11-01T23:05:18.395Z,7.80
2022-11-01T23:07:47.991Z,7.70
2022-11-01T23:10:24.298Z,7.60
2022-11-01T23:13:30.285Z,7.60
2022-11-01T23:16:03.242Z,7.50
2022-11-01T23:18:34.136Z,7.60
2022-11-01T23:21:05.638Z,7.60
2022-11-01T23:23:36.452Z,7.60
2022-11-01T23:26:03.616Z,7.60
2022-11-01T23:28:35.083Z,7.50
2022-11-01T23:31:04.899Z,7.50
2022-11-01T23:33:41.643Z,7.40
2022-11-01T23:36:24.473Z,7.40
2022-11-01T23:38:55.652Z,7.30
2022-11-01T23:41:52.232Z,7.20
2022-11-01T23:44:36.018Z,7.20
2022-11-01T23:47:25.183Z,7.20
2022-11-01T23:50:21.063Z,7.30
2022-11-01T23:53:15.285Z,7.30
2022-11-01T23:55:48.935Z,7.20
2022-11-01T23:58:19.131Z,7.10
